sensor_id;sensor_type;location;lat;lon;timestamp;temperature;humidity
47168;DHT22;32931;47.778;17.806;2023-09-30T00:01:24;17.20;98.20
47168;DHT22;32931;47.778;17.806;2023-09-30T00:03:50;17.20;98.20
47168;DHT22;32931;47.778;17.806;2023-09-30T00:06:16;17.20;98.20
47168;DHT22;32931;47.778;17.806;2023-09-30T00:08:43;17.20;98.30
47168;DHT22;32931;47.778;17.806;2023-09-30T00:11:10;17.20;98.40
47168;DHT22;32931;47.778;17.806;2023-09-30T00:13:36;17.20;98.50
47168;DHT22;32931;47.778;17.806;2023-09-30T00:16:02;17.10;98.60
47168;DHT22;32931;47.778;17.806;2023-09-30T00:18:29;17.10;98.80
47168;DHT22;32931;47.778;17.806;2023-09-30T00:20:55;17.10;98.80
47168;DHT22;32931;47.778;17.806;2023-09-30T00:23:23;17.10;98.90
47168;DHT22;32931;47.778;17.806;2023-09-30T00:25:49;17.10;98.90
47168;DHT22;32931;47.778;17.806;2023-09-30T00:28:16;17.10;98.90
47168;DHT22;32931;47.778;17.806;2023-09-30T00:30:42;17.10;98.90
47168;DHT22;32931;47.778;17.806;2023-09-30T00:33:11;17.00;98.90
47168;DHT22;32931;47.778;17.806;2023-09-30T00:35:37;17.00;99.00
47168;DHT22;32931;47.778;17.806;2023-09-30T00:38:04;17.00;99.10
47168;DHT22;32931;47.778;17.806;2023-09-30T00:40:30;17.00;99.00
47168;DHT22;32931;47.778;17.806;2023-09-30T00:42:56;17.00;98.90
47168;DHT22;32931;47.778;17.806;2023-09-30T00:45:22;17.00;98.90
47168;DHT22;32931;47.778;17.806;2023-09-30T00:47:48;17.00;98.80
47168;DHT22;32931;47.778;17.806;2023-09-30T00:50:15;16.90;98.80
47168;DHT22;32931;47.778;17.806;2023-09-30T00:52:42;16.90;98.70
47168;DHT22;32931;47.778;17.806;2023-09-30T00:55:09;16.90;98.60
47168;DHT22;32931;47.778;17.806;2023-09-30T00:57:37;16.90;98.60
47168;DHT22;32931;47.778;17.806;2023-09-30T01:00:04;16.90;98.50
47168;DHT22;32931;47.778;17.806;2023-09-30T01:02:32;16.80;98.50
47168;DHT22;32931;47.778;17.806;2023-09-30T01:05:01;16.80;98.60
47168;DHT22;32931;47.778;17.806;2023-09-30T01:07:27;16.80;98.70
47168;DHT22;32931;47.778;17.806;2023-09-30T01:09:53;16.80;98.70
47168;DHT22;32931;47.778;17.806;2023-09-30T01:12:19;16.80;98.80
47168;DHT22;32931;47.778;17.806;2023-09-30T01:14:46;16.80;98.80
47168;DHT22;32931;47.778;17.806;2023-09-30T01:17:12;16.80;98.80
47168;DHT22;32931;47.778;17.806;2023-09-30T01:19:40;16.80;98.90
47168;DHT22;32931;47.778;17.806;2023-09-30T01:22:08;16.80;98.80
47168;DHT22;32931;47.778;17.806;2023-09-30T01:24:39;16.80;98.80
47168;DHT22;32931;47.778;17.806;2023-09-30T01:27:06;16.80;98.80
47168;DHT22;32931;47.778;17.806;2023-09-30T01:29:32;16.80;98.80
47168;DHT22;32931;47.778;17.806;2023-09-30T01:31:59;16.80;98.90
47168;DHT22;32931;47.778;17.806;2023-09-30T01:34:25;16.80;98.90
47168;DHT22;32931;47.778;17.806;2023-09-30T01:36:51;16.80;98.90
47168;DHT22;32931;47.778;17.806;2023-09-30T01:39:17;16.80;98.90
47168;DHT22;32931;47.778;17.806;2023-09-30T01:41:43;16.80;99.00
47168;DHT22;32931;47.778;17.806;2023-09-30T01:44:09;16.80;98.90
47168;DHT22;32931;47.778;17.806;2023-09-30T01:46:36;16.80;98.90
47168;DHT22;32931;47.778;17.806;2023-09-30T01:49:02;16.80;98.80
47168;DHT22;32931;47.778;17.806;2023-09-30T01:51:29;16.80;98.60
47168;DHT22;32931;47.778;17.806;2023-09-30T01:53:56;16.70;98.50
47168;DHT22;32931;47.778;17.806;2023-09-30T01:56:22;16.70;98.70
47168;DHT22;32931;47.778;17.806;2023-09-30T01:58:48;16.60;98.80
47168;DHT22;32931;47.778;17.806;2023-09-30T02:01:14;16.60;98.60
47168;DHT22;32931;47.778;17.806;2023-09-30T02:03:41;16.60;98.70
47168;DHT22;32931;47.778;17.806;2023-09-30T02:06:08;16.50;98.70
47168;DHT22;32931;47.778;17.806;2023-09-30T02:08:34;16.60;98.90
47168;DHT22;32931;47.778;17.806;2023-09-30T02:11:03;16.50;98.90
47168;DHT22;32931;47.778;17.806;2023-09-30T02:13:34;16.50;98.90
47168;DHT22;32931;47.778;17.806;2023-09-30T02:16:03;16.60;99.00
47168;DHT22;32931;47.778;17.806;2023-09-30T02:18:29;16.50;98.80
47168;DHT22;32931;47.778;17.806;2023-09-30T02:20:58;16.50;98.80
47168;DHT22;32931;47.778;17.806;2023-09-30T02:23:25;16.50;98.60
47168;DHT22;32931;47.778;17.806;2023-09-30T02:25:51;16.40;98.50
47168;DHT22;32931;47.778;17.806;2023-09-30T02:28:18;16.30;98.40
47168;DHT22;32931;47.778;17.806;2023-09-30T02:30:44;16.20;98.50
47168;DHT22;32931;47.778;17.806;2023-09-30T02:33:10;16.20;98.30
47168;DHT22;32931;47.778;17.806;2023-09-30T02:35:36;16.10;98.20
47168;DHT22;32931;47.778;17.806;2023-09-30T02:38:04;16.00;98.50
47168;DHT22;32931;47.778;17.806;2023-09-30T02:40:31;15.90;98.70
47168;DHT22;32931;47.778;17.806;2023-09-30T02:42:57;15.80;98.70
47168;DHT22;32931;47.778;17.806;2023-09-30T02:45:23;15.70;98.70
47168;DHT22;32931;47.778;17.806;2023-09-30T02:47:49;15.70;98.80
47168;DHT22;32931;47.778;17.806;2023-09-30T02:50:15;15.60;98.80
47168;DHT22;32931;47.778;17.806;2023-09-30T02:52:41;15.60;98.80
47168;DHT22;32931;47.778;17.806;2023-09-30T02:55:09;15.50;98.80
47168;DHT22;32931;47.778;17.806;2023-09-30T02:57:35;15.40;99.20
47168;DHT22;32931;47.778;17.806;2023-09-30T03:00:05;15.30;99.30
47168;DHT22;32931;47.778;17.806;2023-09-30T03:02:54;15.20;99.60
47168;DHT22;32931;47.778;17.806;2023-09-30T03:05:21;15.20;99.90
47168;DHT22;32931;47.778;17.806;2023-09-30T03:07:49;15.20;99.90
47168;DHT22;32931;47.778;17.806;2023-09-30T03:10:16;15.20;99.90
47168;DHT22;32931;47.778;17.806;2023-09-30T03:12:53;15.30;99.90
47168;DHT22;32931;47.778;17.806;2023-09-30T03:15:20;15.30;99.90
47168;DHT22;32931;47.778;17.806;2023-09-30T03:17:46;15.30;99.90
47168;DHT22;32931;47.778;17.806;2023-09-30T03:20:13;15.30;99.90
47168;DHT22;32931;47.778;17.806;2023-09-30T03:22:41;15.40;99.90
47168;DHT22;32931;47.778;17.806;2023-09-30T03:25:10;15.40;99.90
47168;DHT22;32931;47.778;17.806;2023-09-30T03:27:37;15.50;99.90
47168;DHT22;32931;47.778;17.806;2023-09-30T03:30:05;15.50;99.90
47168;DHT22;32931;47.778;17.806;2023-09-30T03:32:32;15.50;99.90
47168;DHT22;32931;47.778;17.806;2023-09-30T03:35:00;15.50;99.90
47168;DHT22;32931;47.778;17.806;2023-09-30T03:37:27;15.50;99.90
47168;DHT22;32931;47.778;17.806;2023-09-30T03:39:56;15.60;99.90
47168;DHT22;32931;47.778;17.806;2023-09-30T03:42:23;15.50;99.90
47168;DHT22;32931;47.778;17.806;2023-09-30T03:44:49;15.60;99.90
47168;DHT22;32931;47.778;17.806;2023-09-30T03:47:16;15.60;99.90
47168;DHT22;32931;47.778;17.806;2023-09-30T03:49:42;15.60;99.90
47168;DHT22;32931;47.778;17.806;2023-09-30T03:52:10;15.60;99.90
47168;DHT22;32931;47.778;17.806;2023-09-30T03:54:36;15.60;99.90
47168;DHT22;32931;47.778;17.806;2023-09-30T03:57:03;15.70;99.90
47168;DHT22;32931;47.778;17.806;2023-09-30T03:59:30;15.70;99.90
47168;DHT22;32931;47.778;17.806;2023-09-30T04:01:56;15.70;99.90
47168;DHT22;32931;47.778;17.806;2023-09-30T04:04:26;15.70;99.90
47168;DHT22;32931;47.778;17.806;2023-09-30T04:06:53;15.70;99.90
47168;DHT22;32931;47.778;17.806;2023-09-30T04:09:19;15.70;99.90
47168;DHT22;32931;47.778;17.806;2023-09-30T04:11:45;15.70;99.90
47168;DHT22;32931;47.778;17.806;2023-09-30T04:14:12;15.70;99.90
47168;DHT22;32931;47.778;17.806;2023-09-30T04:16:38;15.70;99.90
47168;DHT22;32931;47.778;17.806;2023-09-30T04:19:05;15.70;99.90
47168;DHT22;32931;47.778;17.806;2023-09-30T04:21:33;15.70;99.90
47168;DHT22;32931;47.778;17.806;2023-09-30T04:24:00;15.70;99.90
47168;DHT22;32931;47.778;17.806;2023-09-30T04:26:27;15.70;99.90
47168;DHT22;32931;47.778;17.806;2023-09-30T04:28:53;15.70;99.90
47168;DHT22;32931;47.778;17.806;2023-09-30T04:31:20;15.70;99.90
47168;DHT22;32931;47.778;17.806;2023-09-30T04:33:48;15.70;99.90
47168;DHT22;32931;47.778;17.806;2023-09-30T04:36:15;15.60;99.90
47168;DHT22;32931;47.778;17.806;2023-09-30T04:38:41;15.70;99.90
47168;DHT22;32931;47.778;17.806;2023-09-30T04:41:07;15.70;99.90
47168;DHT22;32931;47.778;17.806;2023-09-30T04:43:34;15.70;99.90
47168;DHT22;32931;47.778;17.806;2023-09-30T04:46:00;15.70;99.90
47168;DHT22;32931;47.778;17.806;2023-09-30T04:48:27;15.70;99.90
47168;DHT22;32931;47.778;17.806;2023-09-30T04:50:54;15.70;99.90
47168;DHT22;32931;47.778;17.806;2023-09-30T04:53:21;15.80;99.90
47168;DHT22;32931;47.778;17.806;2023-09-30T04:55:49;15.70;99.90
47168;DHT22;32931;47.778;17.806;2023-09-30T04:58:16;15.70;99.90
47168;DHT22;32931;47.778;17.806;2023-09-30T05:00:43;15.70;99.90
47168;DHT22;32931;47.778;17.806;2023-09-30T05:03:09;15.70;99.90
47168;DHT22;32931;47.778;17.806;2023-09-30T05:05:35;15.70;99.90
47168;DHT22;32931;47.778;17.806;2023-09-30T05:08:01;15.70;99.90
47168;DHT22;32931;47.778;17.806;2023-09-30T05:10:28;15.70;99.90
47168;DHT22;32931;47.778;17.806;2023-09-30T05:12:55;15.80;99.90
47168;DHT22;32931;47.778;17.806;2023-09-30T05:15:21;15.80;99.90
47168;DHT22;32931;47.778;17.806;2023-09-30T05:17:48;15.70;99.90
47168;DHT22;32931;47.778;17.806;2023-09-30T05:20:16;15.80;99.90
47168;DHT22;32931;47.778;17.806;2023-09-30T05:22:45;15.70;99.90
47168;DHT22;32931;47.778;17.806;2023-09-30T05:25:13;15.70;99.90
47168;DHT22;32931;47.778;17.806;2023-09-30T05:27:42;15.70;99.90
47168;DHT22;32931;47.778;17.806;2023-09-30T05:30:09;15.70;99.90
47168;DHT22;32931;47.778;17.806;2023-09-30T05:32:37;15.70;99.90
47168;DHT22;32931;47.778;17.806;2023-09-30T05:35:06;15.70;99.90
47168;DHT22;32931;47.778;17.806;2023-09-30T05:37:42;15.80;99.90
47168;DHT22;32931;47.778;17.806;2023-09-30T05:40:09;15.80;99.90
47168;DHT22;32931;47.778;17.806;2023-09-30T05:42:57;15.80;99.90
47168;DHT22;32931;47.778;17.806;2023-09-30T05:45:27;15.90;99.90
47168;DHT22;32931;47.778;17.806;2023-09-30T05:47:54;15.80;99.90
47168;DHT22;32931;47.778;17.806;2023-09-30T05:50:24;15.90;99.90
47168;DHT22;32931;47.778;17.806;2023-09-30T05:52:53;15.90;99.90
47168;DHT22;32931;47.778;17.806;2023-09-30T05:55:21;15.90;99.90
47168;DHT22;32931;47.778;17.806;2023-09-30T05:57:48;15.90;99.90
47168;DHT22;32931;47.778;17.806;2023-09-30T06:00:16;15.90;99.90
47168;DHT22;32931;47.778;17.806;2023-09-30T06:02:59;16.00;99.90
47168;DHT22;32931;47.778;17.806;2023-09-30T06:05:25;16.00;99.90
47168;DHT22;32931;47.778;17.806;2023-09-30T06:07:52;16.00;99.90
47168;DHT22;32931;47.778;17.806;2023-09-30T06:10:20;16.00;99.90
47168;DHT22;32931;47.778;17.806;2023-09-30T06:12:47;16.10;99.90
47168;DHT22;32931;47.778;17.806;2023-09-30T06:15:14;16.00;99.90
47168;DHT22;32931;47.778;17.806;2023-09-30T06:17:42;16.10;99.90
47168;DHT22;32931;47.778;17.806;2023-09-30T06:20:09;16.10;99.90
47168;DHT22;32931;47.778;17.806;2023-09-30T06:22:42;16.30;99.90
47168;DHT22;32931;47.778;17.806;2023-09-30T06:25:09;16.30;99.90
47168;DHT22;32931;47.778;17.806;2023-09-30T06:27:35;16.40;99.90
47168;DHT22;32931;47.778;17.806;2023-09-30T06:30:02;16.40;99.90
47168;DHT22;32931;47.778;17.806;2023-09-30T06:32:28;16.50;99.90
47168;DHT22;32931;47.778;17.806;2023-09-30T06:34:54;16.50;99.90
47168;DHT22;32931;47.778;17.806;2023-09-30T06:37:20;16.60;99.90
47168;DHT22;32931;47.778;17.806;2023-09-30T06:39:47;16.60;99.90
47168;DHT22;32931;47.778;17.806;2023-09-30T06:42:14;16.60;99.90
47168;DHT22;32931;47.778;17.806;2023-09-30T06:44:40;16.70;99.90
47168;DHT22;32931;47.778;17.806;2023-09-30T06:47:06;16.70;99.90
47168;DHT22;32931;47.778;17.806;2023-09-30T06:49:35;16.70;99.90
47168;DHT22;32931;47.778;17.806;2023-09-30T06:52:01;16.80;99.90
47168;DHT22;32931;47.778;17.806;2023-09-30T06:54:31;16.80;99.90
47168;DHT22;32931;47.778;17.806;2023-09-30T06:56:57;16.90;99.90
47168;DHT22;32931;47.778;17.806;2023-09-30T06:59:23;17.00;99.90
47168;DHT22;32931;47.778;17.806;2023-09-30T07:01:51;17.00;99.90
47168;DHT22;32931;47.778;17.806;2023-09-30T07:04:17;17.00;99.90
47168;DHT22;32931;47.778;17.806;2023-09-30T07:06:43;17.00;99.90
47168;DHT22;32931;47.778;17.806;2023-09-30T07:09:10;17.10;99.90
47168;DHT22;32931;47.778;17.806;2023-09-30T07:11:38;17.10;99.90
47168;DHT22;32931;47.778;17.806;2023-09-30T07:14:04;17.10;99.90
47168;DHT22;32931;47.778;17.806;2023-09-30T07:16:30;17.20;99.90
47168;DHT22;32931;47.778;17.806;2023-09-30T07:18:57;17.30;99.90
47168;DHT22;32931;47.778;17.806;2023-09-30T07:21:23;17.30;99.90
47168;DHT22;32931;47.778;17.806;2023-09-30T07:23:49;17.40;99.90
47168;DHT22;32931;47.778;17.806;2023-09-30T07:26:15;17.40;99.90
47168;DHT22;32931;47.778;17.806;2023-09-30T07:28:41;17.50;99.90
47168;DHT22;32931;47.778;17.806;2023-09-30T07:31:07;17.50;99.90
47168;DHT22;32931;47.778;17.806;2023-09-30T07:33:34;17.60;99.90
47168;DHT22;32931;47.778;17.806;2023-09-30T07:36:00;17.70;99.90
47168;DHT22;32931;47.778;17.806;2023-09-30T07:38:26;17.90;99.90
47168;DHT22;32931;47.778;17.806;2023-09-30T07:40:52;17.90;99.90
47168;DHT22;32931;47.778;17.806;2023-09-30T07:43:18;18.10;99.90
47168;DHT22;32931;47.778;17.806;2023-09-30T07:45:46;18.20;99.90
47168;DHT22;32931;47.778;17.806;2023-09-30T07:48:12;18.30;99.90
47168;DHT22;32931;47.778;17.806;2023-09-30T07:50:40;18.40;99.90
47168;DHT22;32931;47.778;17.806;2023-09-30T07:53:08;18.50;99.90
47168;DHT22;32931;47.778;17.806;2023-09-30T07:55:34;18.50;99.90
47168;DHT22;32931;47.778;17.806;2023-09-30T07:58:00;18.60;99.90
47168;DHT22;32931;47.778;17.806;2023-09-30T08:00:26;18.60;99.90
47168;DHT22;32931;47.778;17.806;2023-09-30T08:02:53;18.60;99.90
47168;DHT22;32931;47.778;17.806;2023-09-30T08:05:19;18.60;99.90
47168;DHT22;32931;47.778;17.806;2023-09-30T08:07:45;18.60;99.90
47168;DHT22;32931;47.778;17.806;2023-09-30T08:10:12;18.60;99.90
47168;DHT22;32931;47.778;17.806;2023-09-30T08:12:40;18.70;99.90
47168;DHT22;32931;47.778;17.806;2023-09-30T08:15:07;18.70;99.90
47168;DHT22;32931;47.778;17.806;2023-09-30T08:17:33;18.90;99.90
47168;DHT22;32931;47.778;17.806;2023-09-30T08:19:59;18.90;99.90
47168;DHT22;32931;47.778;17.806;2023-09-30T08:22:26;19.00;99.90
47168;DHT22;32931;47.778;17.806;2023-09-30T08:24:54;19.00;99.90
47168;DHT22;32931;47.778;17.806;2023-09-30T08:27:20;19.10;99.90
47168;DHT22;32931;47.778;17.806;2023-09-30T08:29:46;19.20;99.90
47168;DHT22;32931;47.778;17.806;2023-09-30T08:32:13;19.30;99.90
47168;DHT22;32931;47.778;17.806;2023-09-30T08:34:39;19.30;99.90
47168;DHT22;32931;47.778;17.806;2023-09-30T08:37:05;19.40;99.90
47168;DHT22;32931;47.778;17.806;2023-09-30T08:39:31;19.50;99.90
47168;DHT22;32931;47.778;17.806;2023-09-30T08:41:57;19.50;99.90
47168;DHT22;32931;47.778;17.806;2023-09-30T08:44:24;19.60;99.90
47168;DHT22;32931;47.778;17.806;2023-09-30T08:46:51;19.60;99.90
47168;DHT22;32931;47.778;17.806;2023-09-30T08:49:18;19.70;99.90
47168;DHT22;32931;47.778;17.806;2023-09-30T08:51:45;19.70;99.90
47168;DHT22;32931;47.778;17.806;2023-09-30T08:54:15;19.70;99.90
47168;DHT22;32931;47.778;17.806;2023-09-30T08:56:42;19.70;99.90
47168;DHT22;32931;47.778;17.806;2023-09-30T08:59:11;19.80;99.90
47168;DHT22;32931;47.778;17.806;2023-09-30T09:01:37;19.80;99.90
47168;DHT22;32931;47.778;17.806;2023-09-30T09:04:07;19.90;99.90
47168;DHT22;32931;47.778;17.806;2023-09-30T09:06:33;19.80;99.90
47168;DHT22;32931;47.778;17.806;2023-09-30T09:09:16;19.80;99.90
47168;DHT22;32931;47.778;17.806;2023-09-30T09:11:48;19.90;99.90
47168;DHT22;32931;47.778;17.806;2023-09-30T09:14:14;19.90;99.90
47168;DHT22;32931;47.778;17.806;2023-09-30T09:16:54;19.90;99.90
47168;DHT22;32931;47.778;17.806;2023-09-30T09:19:21;20.00;99.90
47168;DHT22;32931;47.778;17.806;2023-09-30T09:21:59;20.00;99.90
47168;DHT22;32931;47.778;17.806;2023-09-30T09:24:29;20.00;99.90
47168;DHT22;32931;47.778;17.806;2023-09-30T09:27:14;20.10;99.90
47168;DHT22;32931;47.778;17.806;2023-09-30T09:29:45;20.10;99.90
47168;DHT22;32931;47.778;17.806;2023-09-30T09:32:13;20.10;99.90
47168;DHT22;32931;47.778;17.806;2023-09-30T09:34:40;20.20;99.90
47168;DHT22;32931;47.778;17.806;2023-09-30T09:37:17;20.10;99.90
47168;DHT22;32931;47.778;17.806;2023-09-30T09:39:55;20.10;99.90
47168;DHT22;32931;47.778;17.806;2023-09-30T09:42:32;20.10;99.90
47168;DHT22;32931;47.778;17.806;2023-09-30T09:45:03;20.10;99.90
47168;DHT22;32931;47.778;17.806;2023-09-30T09:47:34;20.10;99.90
47168;DHT22;32931;47.778;17.806;2023-09-30T09:50:03;20.20;99.90
47168;DHT22;32931;47.778;17.806;2023-09-30T09:52:34;20.10;99.90
47168;DHT22;32931;47.778;17.806;2023-09-30T09:55:02;20.20;99.90
47168;DHT22;32931;47.778;17.806;2023-09-30T09:57:30;20.20;99.90
47168;DHT22;32931;47.778;17.806;2023-09-30T09:59:57;20.30;99.90
47168;DHT22;32931;47.778;17.806;2023-09-30T10:02:24;20.30;99.90
47168;DHT22;32931;47.778;17.806;2023-09-30T10:04:51;20.30;99.90
47168;DHT22;32931;47.778;17.806;2023-09-30T10:07:29;20.40;99.90
47168;DHT22;32931;47.778;17.806;2023-09-30T10:09:59;20.50;99.90
47168;DHT22;32931;47.778;17.806;2023-09-30T10:12:26;20.60;99.90
47168;DHT22;32931;47.778;17.806;2023-09-30T10:14:52;20.60;99.90
47168;DHT22;32931;47.778;17.806;2023-09-30T10:17:20;20.70;99.90
47168;DHT22;32931;47.778;17.806;2023-09-30T10:20:05;20.70;99.90
47168;DHT22;32931;47.778;17.806;2023-09-30T10:22:33;20.90;99.90
47168;DHT22;32931;47.778;17.806;2023-09-30T10:25:00;20.90;99.90
47168;DHT22;32931;47.778;17.806;2023-09-30T10:35:22;21.50;99.90
47168;DHT22;32931;47.778;17.806;2023-09-30T10:40:52;21.70;99.90
47168;DHT22;32931;47.778;17.806;2023-09-30T10:43:36;21.80;99.90
47168;DHT22;32931;47.778;17.806;2023-09-30T10:46:03;21.90;99.90
47168;DHT22;32931;47.778;17.806;2023-09-30T10:48:34;21.80;99.90
47168;DHT22;32931;47.778;17.806;2023-09-30T10:51:13;21.90;99.90
47168;DHT22;32931;47.778;17.806;2023-09-30T10:53:51;21.90;99.90
47168;DHT22;32931;47.778;17.806;2023-09-30T10:56:19;21.80;99.90
47168;DHT22;32931;47.778;17.806;2023-09-30T10:58:48;21.80;99.90
47168;DHT22;32931;47.778;17.806;2023-09-30T11:01:19;21.80;99.90
47168;DHT22;32931;47.778;17.806;2023-09-30T11:03:46;21.80;99.90
47168;DHT22;32931;47.778;17.806;2023-09-30T11:06:14;21.80;99.90
47168;DHT22;32931;47.778;17.806;2023-09-30T11:08:54;21.80;99.90
47168;DHT22;32931;47.778;17.806;2023-09-30T11:11:36;21.90;99.90
47168;DHT22;32931;47.778;17.806;2023-09-30T11:14:15;22.00;99.90
47168;DHT22;32931;47.778;17.806;2023-09-30T11:16:42;22.00;99.90
47168;DHT22;32931;47.778;17.806;2023-09-30T11:19:12;22.10;99.90
47168;DHT22;32931;47.778;17.806;2023-09-30T11:21:39;22.20;99.90
47168;DHT22;32931;47.778;17.806;2023-09-30T11:24:07;22.30;99.90
47168;DHT22;32931;47.778;17.806;2023-09-30T11:26:34;22.30;99.90
47168;DHT22;32931;47.778;17.806;2023-09-30T11:29:07;22.40;99.90
47168;DHT22;32931;47.778;17.806;2023-09-30T11:31:36;22.40;99.90
47168;DHT22;32931;47.778;17.806;2023-09-30T11:34:03;22.50;99.90
47168;DHT22;32931;47.778;17.806;2023-09-30T11:36:30;22.50;99.90
47168;DHT22;32931;47.778;17.806;2023-09-30T11:38:59;22.50;99.90
47168;DHT22;32931;47.778;17.806;2023-09-30T11:41:35;22.50;99.90
47168;DHT22;32931;47.778;17.806;2023-09-30T11:44:09;22.50;99.90
47168;DHT22;32931;47.778;17.806;2023-09-30T11:46:56;22.50;99.90
47168;DHT22;32931;47.778;17.806;2023-09-30T11:49:25;22.50;99.90
47168;DHT22;32931;47.778;17.806;2023-09-30T11:51:53;22.50;99.90
47168;DHT22;32931;47.778;17.806;2023-09-30T11:54:19;22.50;99.90
47168;DHT22;32931;47.778;17.806;2023-09-30T11:56:48;22.50;99.90
47168;DHT22;32931;47.778;17.806;2023-09-30T11:59:17;22.50;99.90
47168;DHT22;32931;47.778;17.806;2023-09-30T12:01:45;22.50;99.90
47168;DHT22;32931;47.778;17.806;2023-09-30T12:04:15;22.50;99.90
47168;DHT22;32931;47.778;17.806;2023-09-30T12:06:43;22.50;99.90
47168;DHT22;32931;47.778;17.806;2023-09-30T12:09:09;22.40;99.90
47168;DHT22;32931;47.778;17.806;2023-09-30T12:11:40;22.50;99.90
47168;DHT22;32931;47.778;17.806;2023-09-30T12:14:12;22.40;99.90
47168;DHT22;32931;47.778;17.806;2023-09-30T12:16:39;22.50;99.90
47168;DHT22;32931;47.778;17.806;2023-09-30T12:19:07;22.50;99.90
47168;DHT22;32931;47.778;17.806;2023-09-30T12:21:34;22.50;99.90
47168;DHT22;32931;47.778;17.806;2023-09-30T12:24:02;22.50;99.90
47168;DHT22;32931;47.778;17.806;2023-09-30T12:26:32;22.50;99.90
47168;DHT22;32931;47.778;17.806;2023-09-30T12:28:58;22.60;99.90
47168;DHT22;32931;47.778;17.806;2023-09-30T12:31:25;22.70;99.90
47168;DHT22;32931;47.778;17.806;2023-09-30T12:33:51;22.80;99.90
47168;DHT22;32931;47.778;17.806;2023-09-30T12:36:18;22.80;99.90
47168;DHT22;32931;47.778;17.806;2023-09-30T12:38:44;22.90;99.90
47168;DHT22;32931;47.778;17.806;2023-09-30T12:41:10;22.90;99.90
47168;DHT22;32931;47.778;17.806;2023-09-30T12:43:37;22.90;99.90
47168;DHT22;32931;47.778;17.806;2023-09-30T12:46:03;22.90;99.70
47168;DHT22;32931;47.778;17.806;2023-09-30T12:48:30;22.90;99.70
47168;DHT22;32931;47.778;17.806;2023-09-30T12:50:56;22.90;99.80
47168;DHT22;32931;47.778;17.806;2023-09-30T12:53:22;22.90;99.80
47168;DHT22;32931;47.778;17.806;2023-09-30T12:55:48;22.90;99.90
47168;DHT22;32931;47.778;17.806;2023-09-30T12:58:15;23.00;99.70
47168;DHT22;32931;47.778;17.806;2023-09-30T13:00:41;23.00;99.50
47168;DHT22;32931;47.778;17.806;2023-09-30T13:03:07;23.00;99.40
47168;DHT22;32931;47.778;17.806;2023-09-30T13:05:33;23.00;99.30
47168;DHT22;32931;47.778;17.806;2023-09-30T13:08:00;22.90;99.30
47168;DHT22;32931;47.778;17.806;2023-09-30T13:10:27;23.00;99.40
47168;DHT22;32931;47.778;17.806;2023-09-30T13:12:54;23.10;99.30
47168;DHT22;32931;47.778;17.806;2023-09-30T13:15:21;23.10;99.30
47168;DHT22;32931;47.778;17.806;2023-09-30T13:17:49;23.10;99.20
47168;DHT22;32931;47.778;17.806;2023-09-30T13:20:15;23.10;99.10
47168;DHT22;32931;47.778;17.806;2023-09-30T13:22:41;23.20;99.10
47168;DHT22;32931;47.778;17.806;2023-09-30T13:25:08;23.20;99.00
47168;DHT22;32931;47.778;17.806;2023-09-30T13:27:34;23.20;99.00
47168;DHT22;32931;47.778;17.806;2023-09-30T13:30:00;23.20;98.90
47168;DHT22;32931;47.778;17.806;2023-09-30T13:32:27;23.10;98.90
47168;DHT22;32931;47.778;17.806;2023-09-30T13:34:54;23.10;98.90
47168;DHT22;32931;47.778;17.806;2023-09-30T13:37:20;23.10;98.90
47168;DHT22;32931;47.778;17.806;2023-09-30T13:39:46;23.10;98.90
47168;DHT22;32931;47.778;17.806;2023-09-30T13:42:12;23.00;99.00
47168;DHT22;32931;47.778;17.806;2023-09-30T13:44:39;23.10;99.00
47168;DHT22;32931;47.778;17.806;2023-09-30T13:47:05;23.10;99.00
47168;DHT22;32931;47.778;17.806;2023-09-30T13:49:31;23.10;98.90
47168;DHT22;32931;47.778;17.806;2023-09-30T13:51:59;23.10;98.60
47168;DHT22;32931;47.778;17.806;2023-09-30T13:54:25;23.10;98.70
47168;DHT22;32931;47.778;17.806;2023-09-30T13:56:51;23.10;98.50
47168;DHT22;32931;47.778;17.806;2023-09-30T13:59:18;23.10;98.50
47168;DHT22;32931;47.778;17.806;2023-09-30T14:01:44;23.00;98.40
47168;DHT22;32931;47.778;17.806;2023-09-30T14:04:10;23.10;98.50
47168;DHT22;32931;47.778;17.806;2023-09-30T14:06:36;23.00;98.50
47168;DHT22;32931;47.778;17.806;2023-09-30T14:09:03;23.00;98.60
47168;DHT22;32931;47.778;17.806;2023-09-30T14:11:29;23.00;98.70
47168;DHT22;32931;47.778;17.806;2023-09-30T14:13:56;23.00;98.90
47168;DHT22;32931;47.778;17.806;2023-09-30T14:16:22;23.00;98.90
47168;DHT22;32931;47.778;17.806;2023-09-30T14:18:48;22.90;99.00
47168;DHT22;32931;47.778;17.806;2023-09-30T14:21:15;22.90;99.10
47168;DHT22;32931;47.778;17.806;2023-09-30T14:23:41;22.90;99.10
47168;DHT22;32931;47.778;17.806;2023-09-30T14:26:07;22.90;99.10
47168;DHT22;32931;47.778;17.806;2023-09-30T14:28:37;22.90;99.20
47168;DHT22;32931;47.778;17.806;2023-09-30T14:31:04;22.90;99.20
47168;DHT22;32931;47.778;17.806;2023-09-30T14:33:30;22.90;99.20
47168;DHT22;32931;47.778;17.806;2023-09-30T14:35:56;22.80;99.10
47168;DHT22;32931;47.778;17.806;2023-09-30T14:38:22;22.90;99.30
47168;DHT22;32931;47.778;17.806;2023-09-30T14:40:49;22.80;99.10
47168;DHT22;32931;47.778;17.806;2023-09-30T14:43:16;22.80;99.10
47168;DHT22;32931;47.778;17.806;2023-09-30T14:45:42;22.80;99.10
47168;DHT22;32931;47.778;17.806;2023-09-30T14:48:08;22.80;99.20
47168;DHT22;32931;47.778;17.806;2023-09-30T14:50:37;22.80;99.20
47168;DHT22;32931;47.778;17.806;2023-09-30T14:53:03;22.80;99.30
47168;DHT22;32931;47.778;17.806;2023-09-30T14:55:33;22.70;99.30
47168;DHT22;32931;47.778;17.806;2023-09-30T14:57:59;22.70;99.40
47168;DHT22;32931;47.778;17.806;2023-09-30T15:00:25;22.70;99.40
47168;DHT22;32931;47.778;17.806;2023-09-30T15:02:52;22.70;99.30
47168;DHT22;32931;47.778;17.806;2023-09-30T15:05:20;22.70;99.30
47168;DHT22;32931;47.778;17.806;2023-09-30T15:07:47;22.60;99.30
47168;DHT22;32931;47.778;17.806;2023-09-30T15:10:13;22.60;99.30
47168;DHT22;32931;47.778;17.806;2023-09-30T15:12:39;22.70;99.40
47168;DHT22;32931;47.778;17.806;2023-09-30T15:15:06;22.70;99.50
47168;DHT22;32931;47.778;17.806;2023-09-30T15:17:32;22.70;99.30
47168;DHT22;32931;47.778;17.806;2023-09-30T15:19:59;22.70;99.20
47168;DHT22;32931;47.778;17.806;2023-09-30T15:22:26;22.60;99.20
47168;DHT22;32931;47.778;17.806;2023-09-30T15:24:52;22.60;99.20
47168;DHT22;32931;47.778;17.806;2023-09-30T15:27:19;22.60;98.90
47168;DHT22;32931;47.778;17.806;2023-09-30T15:29:48;22.50;98.80